sensor_id;sensor_type;location;lat;lon;timestamp;temperature;humidity
7512;DHT22;9999;48.780;9.146;2022-07-03T00:00:28;18.50;99.90
7512;DHT22;9999;48.780;9.146;2022-07-03T00:02:55;18.50;99.90
7512;DHT22;9999;48.780;9.146;2022-07-03T00:05:22;18.50;99.90
7512;DHT22;9999;48.780;9.146;2022-07-03T00:07:49;18.50;99.90
7512;DHT22;9999;48.780;9.146;2022-07-03T00:10:15;18.50;99.90
7512;DHT22;9999;48.780;9.146;2022-07-03T00:12:42;18.60;99.90
7512;DHT22;9999;48.780;9.146;2022-07-03T00:15:11;18.70;99.90
7512;DHT22;9999;48.780;9.146;2022-07-03T00:17:37;18.70;99.90
7512;DHT22;9999;48.780;9.146;2022-07-03T00:20:05;18.60;99.90
7512;DHT22;9999;48.780;9.146;2022-07-03T00:22:33;18.60;99.90
7512;DHT22;9999;48.780;9.146;2022-07-03T00:25:05;18.70;99.90
7512;DHT22;9999;48.780;9.146;2022-07-03T00:27:33;18.70;99.90
7512;DHT22;9999;48.780;9.146;2022-07-03T00:30:03;18.60;99.90
7512;DHT22;9999;48.780;9.146;2022-07-03T00:32:31;18.60;99.90
7512;DHT22;9999;48.780;9.146;2022-07-03T00:34:58;18.70;99.90
7512;DHT22;9999;48.780;9.146;2022-07-03T00:37:25;18.70;99.90
7512;DHT22;9999;48.780;9.146;2022-07-03T00:39:52;18.70;99.90
7512;DHT22;9999;48.780;9.146;2022-07-03T00:42:19;18.60;99.90
7512;DHT22;9999;48.780;9.146;2022-07-03T00:44:48;18.70;99.90
7512;DHT22;9999;48.780;9.146;2022-07-03T00:47:15;18.70;99.90
7512;DHT22;9999;48.780;9.146;2022-07-03T00:49:46;18.70;99.90
7512;DHT22;9999;48.780;9.146;2022-07-03T00:52:14;18.70;99.90
7512;DHT22;9999;48.780;9.146;2022-07-03T00:54:43;18.60;99.90
7512;DHT22;9999;48.780;9.146;2022-07-03T00:57:14;18.60;99.90
7512;DHT22;9999;48.780;9.146;2022-07-03T00:59:42;18.60;99.90
7512;DHT22;9999;48.780;9.146;2022-07-03T01:02:15;18.60;99.90
7512;DHT22;9999;48.780;9.146;2022-07-03T01:04:50;18.60;99.90
7512;DHT22;9999;48.780;9.146;2022-07-03T01:07:23;18.50;99.90
7512;DHT22;9999;48.780;9.146;2022-07-03T01:09:59;18.50;99.90
7512;DHT22;9999;48.780;9.146;2022-07-03T01:12:35;18.50;99.90
7512;DHT22;9999;48.780;9.146;2022-07-03T01:15:08;18.50;99.90
7512;DHT22;9999;48.780;9.146;2022-07-03T01:17:38;18.60;99.90
7512;DHT22;9999;48.780;9.146;2022-07-03T01:20:08;18.60;99.90
7512;DHT22;9999;48.780;9.146;2022-07-03T01:22:36;18.50;99.90
7512;DHT22;9999;48.780;9.146;2022-07-03T01:25:12;18.50;99.90
7512;DHT22;9999;48.780;9.146;2022-07-03T01:27:56;18.50;99.90
7512;DHT22;9999;48.780;9.146;2022-07-03T01:30:23;18.50;99.90
7512;DHT22;9999;48.780;9.146;2022-07-03T01:32:56;18.50;99.90
7512;DHT22;9999;48.780;9.146;2022-07-03T01:35:27;18.50;99.90
7512;DHT22;9999;48.780;9.146;2022-07-03T01:37:55;18.50;99.90
7512;DHT22;9999;48.780;9.146;2022-07-03T01:40:23;18.50;99.90
7512;DHT22;9999;48.780;9.146;2022-07-03T01:42:54;18.50;99.90
7512;DHT22;9999;48.780;9.146;2022-07-03T01:45:21;18.40;99.90
7512;DHT22;9999;48.780;9.146;2022-07-03T01:47:51;18.50;99.90
7512;DHT22;9999;48.780;9.146;2022-07-03T01:50:19;18.50;99.90
7512;DHT22;9999;48.780;9.146;2022-07-03T01:52:48;18.40;99.90
7512;DHT22;9999;48.780;9.146;2022-07-03T01:55:17;18.40;99.90
7512;DHT22;9999;48.780;9.146;2022-07-03T01:57:47;18.40;99.90
7512;DHT22;9999;48.780;9.146;2022-07-03T02:00:18;18.40;99.90
7512;DHT22;9999;48.780;9.146;2022-07-03T02:02:52;18.40;99.90
7512;DHT22;9999;48.780;9.146;2022-07-03T02:05:30;18.40;99.90
7512;DHT22;9999;48.780;9.146;2022-07-03T02:08:03;18.40;99.90
7512;DHT22;9999;48.780;9.146;2022-07-03T02:10:37;18.40;99.90
7512;DHT22;9999;48.780;9.146;2022-07-03T02:13:08;18.40;99.90
7512;DHT22;9999;48.780;9.146;2022-07-03T02:15:42;18.30;99.90
7512;DHT22;9999;48.780;9.146;2022-07-03T02:18:11;18.30;99.90
7512;DHT22;9999;48.780;9.146;2022-07-03T02:20:46;18.30;99.90
7512;DHT22;9999;48.780;9.146;2022-07-03T02:23:13;18.40;99.90
7512;DHT22;9999;48.780;9.146;2022-07-03T02:25:44;18.30;99.90
7512;DHT22;9999;48.780;9.146;2022-07-03T02:28:21;18.30;99.90
7512;DHT22;9999;48.780;9.146;2022-07-03T02:30:55;18.30;99.90
7512;DHT22;9999;48.780;9.146;2022-07-03T02:33:26;18.30;99.90
7512;DHT22;9999;48.780;9.146;2022-07-03T02:35:55;18.30;99.90
7512;DHT22;9999;48.780;9.146;2022-07-03T02:38:24;18.20;99.90
7512;DHT22;9999;48.780;9.146;2022-07-03T02:40:57;18.20;99.90
7512;DHT22;9999;48.780;9.146;2022-07-03T02:43:33;18.30;99.90
7512;DHT22;9999;48.780;9.146;2022-07-03T02:46:07;18.20;99.90
7512;DHT22;9999;48.780;9.146;2022-07-03T02:48:55;18.20;99.90
7512;DHT22;9999;48.780;9.146;2022-07-03T02:51:33;18.10;99.90
7512;DHT22;9999;48.780;9.146;2022-07-03T02:54:09;18.20;99.90
7512;DHT22;9999;48.780;9.146;2022-07-03T02:56:43;18.10;99.90
7512;DHT22;9999;48.780;9.146;2022-07-03T02:59:19;18.10;99.90
7512;DHT22;9999;48.780;9.146;2022-07-03T03:01:57;18.10;99.90
7512;DHT22;9999;48.780;9.146;2022-07-03T03:04:29;18.10;99.90
7512;DHT22;9999;48.780;9.146;2022-07-03T03:07:02;18.10;99.90
7512;DHT22;9999;48.780;9.146;2022-07-03T03:09:40;18.00;99.90
7512;DHT22;9999;48.780;9.146;2022-07-03T03:12:08;18.00;99.90
7512;DHT22;9999;48.780;9.146;2022-07-03T03:14:39;18.00;99.90
7512;DHT22;9999;48.780;9.146;2022-07-03T03:17:09;18.10;99.90
7512;DHT22;9999;48.780;9.146;2022-07-03T03:19:40;18.00;99.90
7512;DHT22;9999;48.780;9.146;2022-07-03T03:22:16;18.00;99.90
7512;DHT22;9999;48.780;9.146;2022-07-03T03:24:46;17.90;99.90
7512;DHT22;9999;48.780;9.146;2022-07-03T03:27:14;17.90;99.90
7512;DHT22;9999;48.780;9.146;2022-07-03T03:29:41;17.90;99.90
7512;DHT22;9999;48.780;9.146;2022-07-03T03:32:10;18.00;99.90
7512;DHT22;9999;48.780;9.146;2022-07-03T03:34:38;18.00;99.90
7512;DHT22;9999;48.780;9.146;2022-07-03T03:37:05;18.10;99.90
7512;DHT22;9999;48.780;9.146;2022-07-03T03:39:32;18.00;99.90
7512;DHT22;9999;48.780;9.146;2022-07-03T03:41:59;18.00;99.90
7512;DHT22;9999;48.780;9.146;2022-07-03T03:44:27;18.10;99.90
7512;DHT22;9999;48.780;9.146;2022-07-03T03:46:55;18.00;99.90
7512;DHT22;9999;48.780;9.146;2022-07-03T03:49:23;18.00;99.90
7512;DHT22;9999;48.780;9.146;2022-07-03T03:51:50;18.00;99.90
7512;DHT22;9999;48.780;9.146;2022-07-03T03:54:18;18.00;99.90
7512;DHT22;9999;48.780;9.146;2022-07-03T03:56:45;18.10;99.90
7512;DHT22;9999;48.780;9.146;2022-07-03T03:59:12;18.10;99.90
7512;DHT22;9999;48.780;9.146;2022-07-03T04:01:39;18.10;99.90
7512;DHT22;9999;48.780;9.146;2022-07-03T04:04:05;18.20;99.90
7512;DHT22;9999;48.780;9.146;2022-07-03T04:06:33;18.10;99.90
7512;DHT22;9999;48.780;9.146;2022-07-03T04:09:00;18.10;99.90
7512;DHT22;9999;48.780;9.146;2022-07-03T04:11:27;18.20;99.90
7512;DHT22;9999;48.780;9.146;2022-07-03T04:13:54;18.20;99.90
7512;DHT22;9999;48.780;9.146;2022-07-03T04:16:20;18.20;99.90
7512;DHT22;9999;48.780;9.146;2022-07-03T04:18:47;18.20;99.90
7512;DHT22;9999;48.780;9.146;2022-07-03T04:21:14;18.20;99.90
7512;DHT22;9999;48.780;9.146;2022-07-03T04:23:42;18.10;99.90
7512;DHT22;9999;48.780;9.146;2022-07-03T04:26:09;18.20;99.90
7512;DHT22;9999;48.780;9.146;2022-07-03T04:28:35;18.20;99.90
7512;DHT22;9999;48.780;9.146;2022-07-03T04:31:02;18.20;99.90
7512;DHT22;9999;48.780;9.146;2022-07-03T04:33:29;18.30;99.90
7512;DHT22;9999;48.780;9.146;2022-07-03T04:35:56;18.20;99.90
7512;DHT22;9999;48.780;9.146;2022-07-03T04:38:22;18.20;99.90
7512;DHT22;9999;48.780;9.146;2022-07-03T04:40:51;18.10;99.90
7512;DHT22;9999;48.780;9.146;2022-07-03T04:43:17;18.30;99.90
7512;DHT22;9999;48.780;9.146;2022-07-03T04:45:44;18.30;99.90
7512;DHT22;9999;48.780;9.146;2022-07-03T04:48:11;18.30;99.90
7512;DHT22;9999;48.780;9.146;2022-07-03T04:50:38;18.30;99.90
7512;DHT22;9999;48.780;9.146;2022-07-03T04:53:05;18.30;99.90
7512;DHT22;9999;48.780;9.146;2022-07-03T04:55:32;18.30;99.90
7512;DHT22;9999;48.780;9.146;2022-07-03T04:58:00;18.30;99.90
7512;DHT22;9999;48.780;9.146;2022-07-03T05:00:27;18.30;99.90
7512;DHT22;9999;48.780;9.146;2022-07-03T05:02:54;18.30;99.90
7512;DHT22;9999;48.780;9.146;2022-07-03T05:05:21;18.40;99.90
7512;DHT22;9999;48.780;9.146;2022-07-03T05:07:47;18.40;99.90
7512;DHT22;9999;48.780;9.146;2022-07-03T05:10:14;18.50;99.90
7512;DHT22;9999;48.780;9.146;2022-07-03T05:12:41;18.40;99.90
7512;DHT22;9999;48.780;9.146;2022-07-03T05:15:10;18.40;99.90
7512;DHT22;9999;48.780;9.146;2022-07-03T05:17:36;18.40;99.90
7512;DHT22;9999;48.780;9.146;2022-07-03T05:20:04;18.50;99.90
7512;DHT22;9999;48.780;9.146;2022-07-03T05:22:48;18.50;99.90
7512;DHT22;9999;48.780;9.146;2022-07-03T05:25:15;18.60;99.90
7512;DHT22;9999;48.780;9.146;2022-07-03T05:27:42;18.60;99.90
7512;DHT22;9999;48.780;9.146;2022-07-03T05:30:11;18.70;99.90
7512;DHT22;9999;48.780;9.146;2022-07-03T05:32:38;18.90;99.90
7512;DHT22;9999;48.780;9.146;2022-07-03T05:35:06;18.90;99.90
7512;DHT22;9999;48.780;9.146;2022-07-03T05:37:33;19.00;99.90
7512;DHT22;9999;48.780;9.146;2022-07-03T05:40:00;19.00;99.90
7512;DHT22;9999;48.780;9.146;2022-07-03T05:42:27;19.00;99.90
7512;DHT22;9999;48.780;9.146;2022-07-03T05:44:54;19.00;99.90
7512;DHT22;9999;48.780;9.146;2022-07-03T05:47:22;19.10;99.90
7512;DHT22;9999;48.780;9.146;2022-07-03T05:49:48;19.20;99.90
7512;DHT22;9999;48.780;9.146;2022-07-03T05:52:15;19.30;99.90
7512;DHT22;9999;48.780;9.146;2022-07-03T05:54:42;19.40;99.90
7512;DHT22;9999;48.780;9.146;2022-07-03T05:57:09;19.50;99.90
7512;DHT22;9999;48.780;9.146;2022-07-03T05:59:36;19.60;99.90
7512;DHT22;9999;48.780;9.146;2022-07-03T06:02:03;19.70;99.90
7512;DHT22;9999;48.780;9.146;2022-07-03T06:04:31;19.80;99.90
7512;DHT22;9999;48.780;9.146;2022-07-03T06:06:58;19.90;99.90
7512;DHT22;9999;48.780;9.146;2022-07-03T06:09:25;20.00;99.90
7512;DHT22;9999;48.780;9.146;2022-07-03T06:11:52;20.10;99.90
7512;DHT22;9999;48.780;9.146;2022-07-03T06:14:18;20.20;99.90
7512;DHT22;9999;48.780;9.146;2022-07-03T06:16:45;20.40;99.90
7512;DHT22;9999;48.780;9.146;2022-07-03T06:19:12;20.50;99.90
7512;DHT22;9999;48.780;9.146;2022-07-03T06:21:40;20.60;99.90
7512;DHT22;9999;48.780;9.146;2022-07-03T06:24:07;20.70;99.90
7512;DHT22;9999;48.780;9.146;2022-07-03T06:26:34;20.70;99.90
7512;DHT22;9999;48.780;9.146;2022-07-03T06:29:00;20.90;99.90
7512;DHT22;9999;48.780;9.146;2022-07-03T06:31:27;21.10;99.90
7512;DHT22;9999;48.780;9.146;2022-07-03T06:33:54;21.20;99.90
7512;DHT22;9999;48.780;9.146;2022-07-03T06:36:21;21.30;99.90
7512;DHT22;9999;48.780;9.146;2022-07-03T06:38:49;21.30;99.90
7512;DHT22;9999;48.780;9.146;2022-07-03T06:41:16;21.50;99.90
7512;DHT22;9999;48.780;9.146;2022-07-03T06:43:42;21.50;99.90
7512;DHT22;9999;48.780;9.146;2022-07-03T06:46:09;21.70;99.90
7512;DHT22;9999;48.780;9.146;2022-07-03T06:48:36;21.90;99.90
7512;DHT22;9999;48.780;9.146;2022-07-03T06:51:03;22.00;99.90
7512;DHT22;9999;48.780;9.146;2022-07-03T06:53:29;22.20;99.90
7512;DHT22;9999;48.780;9.146;2022-07-03T06:55:57;22.40;99.90
7512;DHT22;9999;48.780;9.146;2022-07-03T06:58:24;22.60;99.90
7512;DHT22;9999;48.780;9.146;2022-07-03T07:00:51;22.80;99.90
7512;DHT22;9999;48.780;9.146;2022-07-03T07:03:18;22.80;99.90
7512;DHT22;9999;48.780;9.146;2022-07-03T07:05:44;23.00;99.90
7512;DHT22;9999;48.780;9.146;2022-07-03T07:08:11;23.00;99.90
7512;DHT22;9999;48.780;9.146;2022-07-03T07:10:38;23.30;99.90
7512;DHT22;9999;48.780;9.146;2022-07-03T07:13:06;23.50;99.90
7512;DHT22;9999;48.780;9.146;2022-07-03T07:15:33;23.60;99.90
7512;DHT22;9999;48.780;9.146;2022-07-03T07:17:59;23.80;99.90
7512;DHT22;9999;48.780;9.146;2022-07-03T07:20:26;24.00;99.90
7512;DHT22;9999;48.780;9.146;2022-07-03T07:22:53;24.40;99.90
7512;DHT22;9999;48.780;9.146;2022-07-03T07:25:20;24.50;99.90
7512;DHT22;9999;48.780;9.146;2022-07-03T07:27:46;24.60;99.90
7512;DHT22;9999;48.780;9.146;2022-07-03T07:30:15;24.70;99.90
7512;DHT22;9999;48.780;9.146;2022-07-03T07:32:41;25.00;99.90
7512;DHT22;9999;48.780;9.146;2022-07-03T07:35:08;25.10;99.90
7512;DHT22;9999;48.780;9.146;2022-07-03T07:37:35;25.60;99.90
7512;DHT22;9999;48.780;9.146;2022-07-03T07:40:03;25.90;99.90
7512;DHT22;9999;48.780;9.146;2022-07-03T07:42:30;25.70;99.90
7512;DHT22;9999;48.780;9.146;2022-07-03T07:44:56;26.00;99.90
7512;DHT22;9999;48.780;9.146;2022-07-03T07:47:24;26.20;99.90
7512;DHT22;9999;48.780;9.146;2022-07-03T07:49:51;26.20;99.90
7512;DHT22;9999;48.780;9.146;2022-07-03T07:52:18;26.10;97.70
7512;DHT22;9999;48.780;9.146;2022-07-03T07:54:45;26.40;97.10
7512;DHT22;9999;48.780;9.146;2022-07-03T07:57:11;26.20;97.80
7512;DHT22;9999;48.780;9.146;2022-07-03T07:59:38;26.20;96.70
7512;DHT22;9999;48.780;9.146;2022-07-03T08:02:05;26.30;96.70
7512;DHT22;9999;48.780;9.146;2022-07-03T08:04:50;26.50;94.90
7512;DHT22;9999;48.780;9.146;2022-07-03T08:07:35;26.60;95.90
7512;DHT22;9999;48.780;9.146;2022-07-03T08:10:03;27.10;99.20
7512;DHT22;9999;48.780;9.146;2022-07-03T08:12:30;27.40;94.50
7512;DHT22;9999;48.780;9.146;2022-07-03T08:14:56;27.60;93.20
7512;DHT22;9999;48.780;9.146;2022-07-03T08:17:23;27.40;90.40
7512;DHT22;9999;48.780;9.146;2022-07-03T08:19:51;27.50;90.60
7512;DHT22;9999;48.780;9.146;2022-07-03T08:22:18;27.50;90.80
7512;DHT22;9999;48.780;9.146;2022-07-03T08:24:45;27.80;90.20
7512;DHT22;9999;48.780;9.146;2022-07-03T08:27:12;28.00;89.80
7512;DHT22;9999;48.780;9.146;2022-07-03T08:29:38;28.30;80.50
7512;DHT22;9999;48.780;9.146;2022-07-03T08:32:06;28.20;81.90
7512;DHT22;9999;48.780;9.146;2022-07-03T08:34:33;28.30;75.70
7512;DHT22;9999;48.780;9.146;2022-07-03T08:37:02;28.40;81.70
7512;DHT22;9999;48.780;9.146;2022-07-03T08:39:29;28.40;79.80
7512;DHT22;9999;48.780;9.146;2022-07-03T08:41:56;28.70;79.70
7512;DHT22;9999;48.780;9.146;2022-07-03T08:44:24;28.80;75.50
7512;DHT22;9999;48.780;9.146;2022-07-03T08:46:51;28.50;79.10
7512;DHT22;9999;48.780;9.146;2022-07-03T08:49:19;28.50;80.20
7512;DHT22;9999;48.780;9.146;2022-07-03T08:51:46;28.70;80.40
7512;DHT22;9999;48.780;9.146;2022-07-03T08:54:14;29.00;75.30
7512;DHT22;9999;48.780;9.146;2022-07-03T08:56:42;28.50;73.20
7512;DHT22;9999;48.780;9.146;2022-07-03T08:59:09;28.40;75.80
7512;DHT22;9999;48.780;9.146;2022-07-03T09:01:36;28.70;76.20
7512;DHT22;9999;48.780;9.146;2022-07-03T09:04:09;28.80;72.30
7512;DHT22;9999;48.780;9.146;2022-07-03T09:06:36;28.50;76.70
7512;DHT22;9999;48.780;9.146;2022-07-03T09:09:04;28.50;77.10
7512;DHT22;9999;48.780;9.146;2022-07-03T09:11:34;28.70;72.40
7512;DHT22;9999;48.780;9.146;2022-07-03T09:14:01;29.00;71.70
7512;DHT22;9999;48.780;9.146;2022-07-03T09:16:32;29.10;69.00
7512;DHT22;9999;48.780;9.146;2022-07-03T09:19:00;29.30;69.80
7512;DHT22;9999;48.780;9.146;2022-07-03T09:21:35;29.30;71.80
7512;DHT22;9999;48.780;9.146;2022-07-03T09:24:04;29.10;70.90
7512;DHT22;9999;48.780;9.146;2022-07-03T09:26:31;29.50;70.10
7512;DHT22;9999;48.780;9.146;2022-07-03T09:28:59;29.50;67.10
7512;DHT22;9999;48.780;9.146;2022-07-03T09:31:29;29.20;69.50
7512;DHT22;9999;48.780;9.146;2022-07-03T09:33:58;29.50;67.10
7512;DHT22;9999;48.780;9.146;2022-07-03T09:36:39;29.60;61.70
7512;DHT22;9999;48.780;9.146;2022-07-03T09:39:15;29.80;63.00
7512;DHT22;9999;48.780;9.146;2022-07-03T09:41:54;29.70;63.60
7512;DHT22;9999;48.780;9.146;2022-07-03T09:44:36;29.80;65.50
7512;DHT22;9999;48.780;9.146;2022-07-03T09:47:08;29.90;59.20
7512;DHT22;9999;48.780;9.146;2022-07-03T09:49:45;30.00;63.90
7512;DHT22;9999;48.780;9.146;2022-07-03T09:52:26;30.10;60.20
7512;DHT22;9999;48.780;9.146;2022-07-03T09:54:54;30.00;62.60
7512;DHT22;9999;48.780;9.146;2022-07-03T09:57:21;29.60;64.50
7512;DHT22;9999;48.780;9.146;2022-07-03T10:00:08;29.50;63.20
7512;DHT22;9999;48.780;9.146;2022-07-03T10:02:51;29.80;61.00
7512;DHT22;9999;48.780;9.146;2022-07-03T10:05:18;29.70;59.50
7512;DHT22;9999;48.780;9.146;2022-07-03T10:07:56;29.90;59.50
7512;DHT22;9999;48.780;9.146;2022-07-03T10:10:24;29.90;60.90
7512;DHT22;9999;48.780;9.146;2022-07-03T10:12:52;29.80;61.50
7512;DHT22;9999;48.780;9.146;2022-07-03T10:15:22;30.00;62.00
7512;DHT22;9999;48.780;9.146;2022-07-03T10:17:50;30.00;62.60
7512;DHT22;9999;48.780;9.146;2022-07-03T10:20:24;30.00;62.10
7512;DHT22;9999;48.780;9.146;2022-07-03T10:22:52;30.20;58.90
7512;DHT22;9999;48.780;9.146;2022-07-03T10:25:19;30.10;58.50
7512;DHT22;9999;48.780;9.146;2022-07-03T10:27:47;30.10;62.60
7512;DHT22;9999;48.780;9.146;2022-07-03T10:30:14;30.40;59.50
7512;DHT22;9999;48.780;9.146;2022-07-03T10:32:44;30.50;62.90
7512;DHT22;9999;48.780;9.146;2022-07-03T10:35:12;30.30;62.70
7512;DHT22;9999;48.780;9.146;2022-07-03T10:37:50;30.50;61.80
7512;DHT22;9999;48.780;9.146;2022-07-03T10:40:24;30.30;61.10
7512;DHT22;9999;48.780;9.146;2022-07-03T10:43:15;30.70;60.00
7512;DHT22;9999;48.780;9.146;2022-07-03T10:46:10;30.80;59.80
7512;DHT22;9999;48.780;9.146;2022-07-03T10:48:59;30.90;57.70
7512;DHT22;9999;48.780;9.146;2022-07-03T10:51:27;31.10;63.20
7512;DHT22;9999;48.780;9.146;2022-07-03T10:54:15;31.30;60.50
7512;DHT22;9999;48.780;9.146;2022-07-03T10:57:04;31.30;57.20
7512;DHT22;9999;48.780;9.146;2022-07-03T11:02:38;31.20;62.50
7512;DHT22;9999;48.780;9.146;2022-07-03T11:08:09;31.00;61.80
7512;DHT22;9999;48.780;9.146;2022-07-03T11:10:38;31.30;59.90
7512;DHT22;9999;48.780;9.146;2022-07-03T11:13:10;31.10;57.60
7512;DHT22;9999;48.780;9.146;2022-07-03T11:15:39;31.10;59.90
7512;DHT22;9999;48.780;9.146;2022-07-03T11:18:17;30.90;58.30
7512;DHT22;9999;48.780;9.146;2022-07-03T11:21:10;31.10;59.40
7512;DHT22;9999;48.780;9.146;2022-07-03T11:23:48;31.10;61.70
7512;DHT22;9999;48.780;9.146;2022-07-03T11:26:22;31.20;57.10
7512;DHT22;9999;48.780;9.146;2022-07-03T11:28:53;31.20;59.60
7512;DHT22;9999;48.780;9.146;2022-07-03T11:31:22;31.10;59.40
7512;DHT22;9999;48.780;9.146;2022-07-03T11:33:56;31.30;59.00
7512;DHT22;9999;48.780;9.146;2022-07-03T11:36:25;31.60;58.50
7512;DHT22;9999;48.780;9.146;2022-07-03T11:39:04;31.40;59.40
7512;DHT22;9999;48.780;9.146;2022-07-03T11:41:42;31.80;56.70
7512;DHT22;9999;48.780;9.146;2022-07-03T11:44:14;31.60;57.70
7512;DHT22;9999;48.780;9.146;2022-07-03T11:46:41;31.40;60.70
7512;DHT22;9999;48.780;9.146;2022-07-03T11:49:14;30.60;58.70
7512;DHT22;9999;48.780;9.146;2022-07-03T11:51:43;30.40;57.40
7512;DHT22;9999;48.780;9.146;2022-07-03T11:54:19;30.10;58.10
7512;DHT22;9999;48.780;9.146;2022-07-03T11:56:46;29.60;59.10
7512;DHT22;9999;48.780;9.146;2022-07-03T11:59:13;29.20;60.40
7512;DHT22;9999;48.780;9.146;2022-07-03T12:01:40;29.50;62.70
7512;DHT22;9999;48.780;9.146;2022-07-03T12:04:09;29.40;63.40
7512;DHT22;9999;48.780;9.146;2022-07-03T12:06:39;29.20;62.60
7512;DHT22;9999;48.780;9.146;2022-07-03T12:09:16;29.20;62.10
7512;DHT22;9999;48.780;9.146;2022-07-03T12:11:58;29.20;62.30
7512;DHT22;9999;48.780;9.146;2022-07-03T12:14:39;29.50;62.00
7512;DHT22;9999;48.780;9.146;2022-07-03T12:17:09;29.70;61.40
7512;DHT22;9999;48.780;9.146;2022-07-03T12:19:36;30.10;62.70
7512;DHT22;9999;48.780;9.146;2022-07-03T12:22:04;29.90;63.60
7512;DHT22;9999;48.780;9.146;2022-07-03T12:24:32;29.70;59.50
7512;DHT22;9999;48.780;9.146;2022-07-03T12:27:02;29.70;59.50
7512;DHT22;9999;48.780;9.146;2022-07-03T12:29:30;29.70;59.60
7512;DHT22;9999;48.780;9.146;2022-07-03T12:31:57;29.60;60.70
7512;DHT22;9999;48.780;9.146;2022-07-03T12:34:24;29.50;63.80
7512;DHT22;9999;48.780;9.146;2022-07-03T12:36:55;29.50;64.20
7512;DHT22;9999;48.780;9.146;2022-07-03T12:39:23;29.80;60.00
7512;DHT22;9999;48.780;9.146;2022-07-03T12:41:51;30.00;63.40
7512;DHT22;9999;48.780;9.146;2022-07-03T12:44:19;30.30;61.30
7512;DHT22;9999;48.780;9.146;2022-07-03T12:46:46;30.50;58.60
7512;DHT22;9999;48.780;9.146;2022-07-03T12:49:14;30.70;60.00
7512;DHT22;9999;48.780;9.146;2022-07-03T12:51:44;30.90;60.20
7512;DHT22;9999;48.780;9.146;2022-07-03T12:54:14;30.70;59.00
7512;DHT22;9999;48.780;9.146;2022-07-03T12:56:42;30.70;59.10
7512;DHT22;9999;48.780;9.146;2022-07-03T12:59:26;30.60;58.30
7512;DHT22;9999;48.780;9.146;2022-07-03T13:02:04;30.50;61.80
7512;DHT22;9999;48.780;9.146;2022-07-03T13:04:33;30.70;63.10
7512;DHT22;9999;48.780;9.146;2022-07-03T13:07:00;30.80;60.00
7512;DHT22;9999;48.780;9.146;2022-07-03T13:09:27;30.80;56.70
7512;DHT22;9999;48.780;9.146;2022-07-03T13:11:54;30.30;58.50
7512;DHT22;9999;48.780;9.146;2022-07-03T13:14:21;30.30;62.70
7512;DHT22;9999;48.780;9.146;2022-07-03T13:16:52;30.20;59.40
7512;DHT22;9999;48.780;9.146;2022-07-03T13:19:19;30.00;63.10
7512;DHT22;9999;48.780;9.146;2022-07-03T13:21:47;30.00;66.50
7512;DHT22;9999;48.780;9.146;2022-07-03T13:24:15;29.70;68.10
7512;DHT22;9999;48.780;9.146;2022-07-03T13:26:43;29.50;63.60
7512;DHT22;9999;48.780;9.146;2022-07-03T13:29:10;29.60;64.80
7512;DHT22;9999;48.780;9.146;2022-07-03T13:31:37;29.90;61.30
7512;DHT22;9999;48.780;9.146;2022-07-03T13:34:05;30.10;61.00
7512;DHT22;9999;48.780;9.146;2022-07-03T13:36:33;29.80;64.00
7512;DHT22;9999;48.780;9.146;2022-07-03T13:39:00;29.80;64.30
7512;DHT22;9999;48.780;9.146;2022-07-03T13:41:27;30.10;68.40
7512;DHT22;9999;48.780;9.146;2022-07-03T13:43:54;30.30;64.00
7512;DHT22;9999;48.780;9.146;2022-07-03T13:46:22;30.50;66.50
7512;DHT22;9999;48.780;9.146;2022-07-03T13:48:49;30.70;60.20
7512;DHT22;9999;48.780;9.146;2022-07-03T13:51:18;30.40;61.50
7512;DHT22;9999;48.780;9.146;2022-07-03T13:53:45;30.40;63.30
7512;DHT22;9999;48.780;9.146;2022-07-03T13:56:13;30.50;62.90
7512;DHT22;9999;48.780;9.146;2022-07-03T13:58:40;30.60;62.90
7512;DHT22;9999;48.780;9.146;2022-07-03T14:01:07;30.80;62.00
7512;DHT22;9999;48.780;9.146;2022-07-03T14:03:33;30.80;61.70
7512;DHT22;9999;48.780;9.146;2022-07-03T14:06:00;30.90;64.60
7512;DHT22;9999;48.780;9.146;2022-07-03T14:08:28;30.70;62.00
7512;DHT22;9999;48.780;9.146;2022-07-03T14:10:55;30.40;62.20
7512;DHT22;9999;48.780;9.146;2022-07-03T14:13:22;30.50;64.40
7512;DHT22;9999;48.780;9.146;2022-07-03T14:15:48;30.40;62.40
7512;DHT22;9999;48.780;9.146;2022-07-03T14:18:15;30.50;62.50
7512;DHT22;9999;48.780;9.146;2022-07-03T14:20:42;30.60;64.90
7512;DHT22;9999;48.780;9.146;2022-07-03T14:23:09;30.40;60.00
7512;DHT22;9999;48.780;9.146;2022-07-03T14:25:37;30.30;62.00
7512;DHT22;9999;48.780;9.146;2022-07-03T14:28:04;30.50;62.20
7512;DHT22;9999;48.780;9.146;2022-07-03T14:30:48;30.50;62.30
7512;DHT22;9999;48.780;9.146;2022-07-03T14:33:32;30.60;64.80
7512;DHT22;9999;48.780;9.146;2022-07-03T14:35:59;30.80;60.60
7512;DHT22;9999;48.780;9.146;2022-07-03T14:38:26;30.70;60.70
7512;DHT22;9999;48.780;9.146;2022-07-03T14:40:54;30.60;62.90
7512;DHT22;9999;48.780;9.146;2022-07-03T14:43:21;30.50;61.50
7512;DHT22;9999;48.780;9.146;2022-07-03T14:45:47;30.50;60.20
7512;DHT22;9999;48.780;9.146;2022-07-03T14:48:14;30.50;61.80
7512;DHT22;9999;48.780;9.146;2022-07-03T14:50:41;30.40;61.50
7512;DHT22;9999;48.780;9.146;2022-07-03T14:53:08;30.50;64.60
7512;DHT22;9999;48.780;9.146;2022-07-03T14:55:39;30.50;60.90
7512;DHT22;9999;48.780;9.146;2022-07-03T14:58:14;30.40;65.60
7512;DHT22;9999;48.780;9.146;2022-07-03T15:00:46;30.40;61.00
7512;DHT22;9999;48.780;9.146;2022-07-03T15:03:16;30.30;60.50
7512;DHT22;9999;48.780;9.146;2022-07-03T15:05:46;30.30;60.50
7512;DHT22;9999;48.780;9.146;2022-07-03T15:08:27;30.50;61.00
7512;DHT22;9999;48.780;9.146;2022-07-03T15:10:58;30.50;59.70
7512;DHT22;9999;48.780;9.146;2022-07-03T15:13:31;30.30;62.30
7512;DHT22;9999;48.780;9.146;2022-07-03T15:15:59;30.30;63.50
7512;DHT22;9999;48.780;9.146;2022-07-03T15:18:28;30.30;61.30
7512;DHT22;9999;48.780;9.146;2022-07-03T15:20:55;30.20;62.20
7512;DHT22;9999;48.780;9.146;2022-07-03T15:23:23;30.20;61.50
7512;DHT22;9999;48.780;9.146;2022-07-03T15:25:50;30.20;60.40
7512;DHT22;9999;48.780;9.146;2022-07-03T15:28:17;30.20;63.50
7512;DHT22;9999;48.780;9.146;2022-07-03T15:30:49;30.00;60.00
7512;DHT22;9999;48.780;9.146;2022-07-03T15:33:16;30.00;65.00
7512;DHT22;9999;48.780;9.146;2022-07-03T15:35:48;30.00;60.60
7512;DHT22;9999;48.780;9.146;2022-07-03T15:38:20;29.90;60.50
7512;DHT22;9999;48.780;9.146;2022-07-03T15:40:52;30.00;62.20
7512;DHT22;9999;48.780;9.146;2022-07-03T15:43:53;30.10;64.10
7512;DHT22;9999;48.780;9.146;2022-07-03T15:46:40;30.20;63.20
7512;DHT22;9999;48.780;9.146;2022-07-03T15:49:28;30.20;59.80
7512;DHT22;9999;48.780;9.146;2022-07-03T15:52:10;30.00;61.30
7512;DHT22;9999;48.780;9.146;2022-07-03T15:54:57;29.90;59.10
7512;DHT22;9999;48.780;9.146;2022-07-03T15:57:31;29.70;59.60
7512;DHT22;9999;48.780;9.146;2022-07-03T16:00:00;29.80;63.70
7512;DHT22;9999;48.780;9.146;2022-07-03T16:02:48;29.80;62.50
7512;DHT22;9999;48.780;9.146;2022-07-03T16:05:24;29.90;62.80
7512;DHT22;9999;48.780;9.146;2022-07-03T16:07:52;29.70;63.30
7512;DHT22;9999;48.780;9.146;2022-07-03T16:10:20;29.70;63.60
7512;DHT22;9999;48.780;9.146;2022-07-03T16:12:47;29.70;65.00
7512;DHT22;9999;48.780;9.146;2022-07-03T16:15:15;29.70;62.00
7512;DHT22;9999;48.780;9.146;2022-07-03T16:17:45;29.60;61.70
7512;DHT22;9999;48.780;9.146;2022-07-03T16:20:15;29.70;61.10
7512;DHT22;9999;48.780;9.146;2022-07-03T16:22:46;29.70;65.00
7512;DHT22;9999;48.780;9.146;2022-07-03T16:25:13;29.40;62.00